createdAt,value
2018-09-11T00:00:37.302Z,100610.84
2018-09-11T00:03:06.410Z,100614.22
2018-09-11T00:05:35.356Z,100607.52
2018-09-11T00:08:04.294Z,100619.58
2018-09-11T00:10:33.240Z,100619.36
2018-09-11T00:13:02.204Z,100621.84
2018-09-11T00:15:31.282Z,100623.44
2018-09-11T00:18:00.210Z,100619.45
2018-09-11T00:20:29.292Z,100622.73
2018-09-11T00:22:58.387Z,100620.02
2018-09-11T00:25:27.563Z,100615.25
2018-09-11T00:27:56.563Z,100613.98
2018-09-11T00:30:25.691Z,100614.03
2018-09-11T00:32:54.761Z,100612.59
2018-09-11T00:35:23.869Z,100612.51
2018-09-11T00:37:52.784Z,100614.44
2018-09-11T00:40:22.077Z,100614.44
2018-09-11T00:42:51.049Z,100626.03
2018-09-11T00:45:20.364Z,100627.88
2018-09-11T00:47:49.317Z,100623.55
2018-09-11T00:50:18.532Z,100628.58
2018-09-11T00:52:47.509Z,100630.89
2018-09-11T00:55:16.446Z,100629.45
2018-09-11T00:57:45.400Z,100633.44
2018-09-11T01:00:14.328Z,100623.55
2018-09-11T01:02:43.266Z,100624.33
2018-09-11T01:05:12.286Z,100621.31
2018-09-11T01:07:41.366Z,100626.52
2018-09-11T01:10:10.845Z,100623.80
2018-09-11T01:12:39.843Z,100629.77
2018-09-11T01:15:09.512Z,100641.90
2018-09-11T01:17:38.627Z,100641.11
2018-09-11T01:20:08.121Z,100647.19
2018-09-11T01:22:37.110Z,100651.91
2018-09-11T01:25:06.060Z,100660.37
2018-09-11T01:27:34.994Z,100651.91
2018-09-11T01:30:04.166Z,100658.36
2018-09-11T01:32:33.092Z,100659.15
2018-09-11T01:35:02.051Z,100659.23
2018-09-11T01:37:30.984Z,100656.60
2018-09-11T01:39:59.937Z,100660.51
2018-09-11T01:42:28.858Z,100651.09
2018-09-11T01:44:57.807Z,100653.35
2018-09-11T01:47:26.734Z,100650.63
2018-09-11T01:49:55.658Z,100655.24
2018-09-11T01:52:24.950Z,100648.14
2018-09-11T01:54:53.915Z,100652.78
2018-09-11T01:57:22.866Z,100654.71
2018-09-11T01:59:51.766Z,100652.38
2018-09-11T02:02:20.907Z,100651.51
2018-09-11T02:04:49.871Z,100642.31
2018-09-11T02:07:18.821Z,100637.20
2018-09-11T02:09:47.775Z,100628.34
2018-09-11T02:12:16.698Z,100626.76
2018-09-11T02:14:45.763Z,100624.05
2018-09-11T02:17:14.678Z,100623.31
2018-09-11T02:19:43.605Z,100626.05
2018-09-11T02:22:12.562Z,100621.80
2018-09-11T02:24:41.486Z,100619.47
2018-09-11T02:27:10.416Z,100618.84
2018-09-11T02:29:39.365Z,100616.69
2018-09-11T02:32:08.317Z,100616.59
2018-09-11T02:34:37.280Z,100619.65
2018-09-11T02:37:06.213Z,100618.52
2018-09-11T02:39:35.192Z,100620.10
2018-09-11T02:42:04.173Z,100619.87
2018-09-11T02:44:33.151Z,100626.75
2018-09-11T02:47:02.214Z,100630.50
2018-09-11T02:49:31.160Z,100630.02
2018-09-11T02:52:00.104Z,100622.02
2018-09-11T02:54:29.125Z,100617.55
2018-09-11T02:56:58.064Z,100613.96
2018-09-11T02:59:27.020Z,100610.45
2018-09-11T03:01:56.031Z,100615.80
2018-09-11T03:04:24.974Z,100610.69
2018-09-11T03:06:53.962Z,100615.09
2018-09-11T03:09:22.916Z,100613.55
2018-09-11T03:11:51.862Z,100615.70
2018-09-11T03:14:21.027Z,100618.50
2018-09-11T03:16:49.951Z,100617.14
2018-09-11T03:19:18.905Z,100606.86
2018-09-11T03:21:47.834Z,100613.16
2018-09-11T03:24:16.768Z,100611.23
2018-09-11T03:26:45.703Z,100611.56
2018-09-11T03:29:14.720Z,100614.28
2018-09-11T03:31:43.657Z,100617.86
2018-09-11T03:34:12.649Z,100619.78
2018-09-11T03:36:41.564Z,100622.98
2018-09-11T03:39:11.010Z,100630.45
2018-09-11T03:41:40.001Z,100626.72
2018-09-11T03:44:08.997Z,100626.46
2018-09-11T03:46:38.034Z,100623.98
2018-09-11T03:49:06.936Z,100622.63
2018-09-11T03:51:35.954Z,100624.29
2018-09-11T03:54:04.934Z,100619.98
2018-09-11T03:56:33.963Z,100621.83
2018-09-11T03:59:02.918Z,100623.19
2018-09-11T04:01:31.813Z,100625.34
2018-09-11T04:04:00.713Z,100626.77
2018-09-11T04:06:29.724Z,100629.48
2018-09-11T04:08:58.687Z,100633.98
2018-09-11T04:11:27.699Z,100631.34
2018-09-11T04:13:56.693Z,100629.98
2018-09-11T04:16:25.878Z,100631.16
2018-09-11T04:18:54.840Z,100630.13
2018-09-11T04:21:23.766Z,100640.87
2018-09-11T04:23:52.708Z,100643.42
2018-09-11T04:26:21.621Z,100644.78
2018-09-11T04:28:50.726Z,100645.64
2018-09-11T04:31:19.662Z,100650.50
2018-09-11T04:33:48.631Z,100654.27
2018-09-11T04:36:17.551Z,100650.66
2018-09-11T04:38:46.517Z,100650.05
2018-09-11T04:41:15.634Z,100652.36
2018-09-11T04:43:44.596Z,100646.06
2018-09-11T04:46:13.592Z,100648.47
2018-09-11T04:48:44.402Z,100646.48
2018-09-11T04:51:13.523Z,100649.69
2018-09-11T04:53:42.491Z,100649.94
2018-09-11T04:56:11.410Z,100653.63
2018-09-11T04:58:43.050Z,100654.12
2018-09-11T05:01:11.981Z,100661.57
2018-09-11T05:03:40.911Z,100657.17
2018-09-11T05:06:09.848Z,100659.98
2018-09-11T05:08:38.795Z,100663.72
2018-09-11T05:11:07.825Z,100664.70
2018-09-11T05:13:37.038Z,100669.73
2018-09-11T05:16:06.118Z,100676.45
2018-09-11T05:18:35.081Z,100674.22
2018-09-11T05:21:04.028Z,100673.91
2018-09-11T05:23:33.017Z,100671.98
2018-09-11T05:26:02.044Z,100675.98
2018-09-11T05:28:30.988Z,100681.81
2018-09-11T05:30:59.896Z,100685.14
2018-09-11T05:33:28.820Z,100686.04
2018-09-11T05:35:57.863Z,100684.77
2018-09-11T05:38:26.802Z,100688.06
2018-09-11T05:40:55.738Z,100695.73
2018-09-11T05:43:24.677Z,100695.24
2018-09-11T05:45:53.660Z,100698.78
2018-09-11T05:48:22.596Z,100697.55
2018-09-11T05:50:51.691Z,100696.29
2018-09-11T05:53:20.604Z,100694.47
2018-09-11T05:55:49.613Z,100692.08
2018-09-11T05:58:18.552Z,100695.33
2018-09-11T06:00:47.619Z,100693.28
2018-09-11T06:03:16.521Z,100696.00
2018-09-11T06:05:45.536Z,100699.34
2018-09-11T06:08:14.380Z,100700.21
2018-09-11T06:10:43.421Z,100699.64
2018-09-11T06:13:12.340Z,100702.92
2018-09-11T06:15:41.286Z,100695.82
2018-09-11T06:18:10.313Z,100697.58
2018-09-11T06:20:39.314Z,100693.33
2018-09-11T06:23:08.414Z,100695.78
2018-09-11T06:25:37.574Z,100692.84
2018-09-11T06:28:06.589Z,100696.07
2018-09-11T06:30:35.517Z,100708.67
2018-09-11T06:33:04.460Z,100706.34
2018-09-11T06:35:33.472Z,100702.03
2018-09-11T06:38:02.385Z,100702.91
2018-09-11T06:40:31.352Z,100705.79
2018-09-11T06:43:00.260Z,100708.70
2018-09-11T06:45:29.167Z,100705.32
2018-09-11T06:47:58.084Z,100705.02
2018-09-11T06:50:27.032Z,100703.23
2018-09-11T06:52:55.976Z,100701.86
2018-09-11T06:55:24.897Z,100707.44
2018-09-11T06:57:53.973Z,100713.29
2018-09-11T07:00:22.894Z,100716.86
2018-09-11T07:02:51.821Z,100710.16
2018-09-11T07:05:20.812Z,100711.31
2018-09-11T07:07:49.713Z,100705.69
2018-09-11T07:10:18.682Z,100702.61
2018-09-11T07:12:47.642Z,100700.83
2018-09-11T07:15:16.601Z,100710.97
2018-09-11T07:17:45.533Z,100702.48
2018-09-11T07:20:14.850Z,100702.45
2018-09-11T07:22:43.372Z,100697.39
2018-09-11T07:25:12.354Z,100710.25
2018-09-11T07:27:41.322Z,100702.19
2018-09-11T07:30:10.269Z,100695.39
2018-09-11T07:32:39.226Z,100692.61
2018-09-11T07:35:08.128Z,100689.30
2018-09-11T07:37:37.321Z,100690.72
2018-09-11T07:40:06.539Z,100685.95
2018-09-11T07:42:35.483Z,100675.58
2018-09-11T07:45:04.502Z,100673.91
2018-09-11T07:47:33.428Z,100674.64
2018-09-11T07:50:02.412Z,100670.94
2018-09-11T07:52:31.428Z,100662.67
2018-09-11T07:55:00.293Z,100665.49
2018-09-11T07:57:29.254Z,100666.31
2018-09-11T07:59:58.211Z,100669.23
2018-09-11T08:02:27.153Z,100667.23
2018-09-11T08:04:56.071Z,100670.49
2018-09-11T08:07:24.994Z,100673.02
2018-09-11T08:09:53.960Z,100675.13
2018-09-11T08:12:22.866Z,100672.20
2018-09-11T08:14:51.784Z,100667.30
2018-09-11T08:17:20.812Z,100654.27
2018-09-11T08:19:49.805Z,100657.28
2018-09-11T08:22:18.762Z,100653.72
2018-09-11T08:24:47.676Z,100650.61
2018-09-11T08:27:16.621Z,100647.84
2018-09-11T08:29:45.550Z,100652.45
2018-09-11T08:32:14.469Z,100644.27
2018-09-11T08:34:43.388Z,100651.85
2018-09-11T08:37:12.385Z,100655.58
2018-09-11T08:39:41.294Z,100657.53
2018-09-11T08:42:10.219Z,100667.97
2018-09-11T08:44:39.110Z,100653.98
2018-09-11T08:47:08.041Z,100654.93
2018-09-11T08:49:37.006Z,100660.64
2018-09-11T08:52:07.134Z,100651.78
2018-09-11T08:54:36.407Z,100652.41
2018-09-11T08:57:05.456Z,100648.25
2018-09-11T08:59:34.383Z,100650.43
2018-09-11T09:02:03.337Z,100652.63
2018-09-11T09:04:32.255Z,100652.95
2018-09-11T09:07:01.213Z,100655.01
2018-09-11T09:09:30.153Z,100651.38
2018-09-11T09:11:59.075Z,100650.59
2018-09-11T09:14:28.004Z,100644.66
2018-09-11T09:16:57.201Z,100634.23
2018-09-11T09:19:26.148Z,100627.34
2018-09-11T09:21:55.062Z,100635.38
2018-09-11T09:24:23.969Z,100629.71
2018-09-11T09:26:52.898Z,100627.88
2018-09-11T09:29:21.952Z,100630.31
2018-09-11T09:31:50.856Z,100634.66
2018-09-11T09:34:19.833Z,100633.37
2018-09-11T09:36:48.772Z,100628.30
2018-09-11T09:39:17.757Z,100633.03
2018-09-11T09:41:46.803Z,100623.91
2018-09-11T09:44:15.741Z,100619.84
2018-09-11T09:46:44.731Z,100629.48
2018-09-11T09:49:13.648Z,100626.70
2018-09-11T09:51:42.580Z,100627.13
2018-09-11T09:54:11.497Z,100617.27
2018-09-11T09:56:40.445Z,100634.01
2018-09-11T09:59:09.366Z,100631.48
2018-09-11T10:01:43.737Z,100626.14
2018-09-11T10:04:13.172Z,100633.70
2018-09-11T10:06:42.164Z,100630.88
2018-09-11T10:09:12.303Z,100622.58
2018-09-11T10:11:41.253Z,100618.44
2018-09-11T10:14:10.814Z,100605.05
2018-09-11T10:16:39.740Z,100608.71
2018-09-11T10:19:08.796Z,100610.89
2018-09-11T10:21:37.825Z,100614.48
2018-09-11T10:24:06.844Z,100612.51
2018-09-11T10:26:35.769Z,100598.73
2018-09-11T10:29:04.734Z,100602.87
2018-09-11T10:31:33.840Z,100600.96
2018-09-11T10:34:02.805Z,100588.06
2018-09-11T10:36:31.708Z,100596.12
2018-09-11T10:39:00.653Z,100597.27
2018-09-11T10:41:29.616Z,100581.88
2018-09-11T10:43:58.572Z,100577.21
2018-09-11T10:46:27.490Z,100585.78
2018-09-11T10:48:56.437Z,100591.95
2018-09-11T10:51:25.351Z,100585.07
2018-09-11T10:53:54.252Z,100585.94
2018-09-11T10:56:23.166Z,100581.13
2018-09-11T10:58:52.113Z,100573.85
2018-09-11T11:01:21.056Z,100563.02
2018-09-11T11:03:49.962Z,100567.06
2018-09-11T11:06:18.923Z,100574.43
2018-09-11T11:08:47.834Z,100565.48
2018-09-11T11:11:16.782Z,100556.73
2018-09-11T11:13:45.723Z,100555.90
2018-09-11T11:16:14.708Z,100550.58
2018-09-11T11:18:43.668Z,100559.06
2018-09-11T11:21:12.667Z,100556.08
2018-09-11T11:23:41.617Z,100546.42
2018-09-11T11:26:10.551Z,100536.31
2018-09-11T11:28:39.486Z,100544.63
2018-09-11T11:31:08.712Z,100543.52
2018-09-11T11:33:37.746Z,100542.95
2018-09-11T11:36:06.940Z,100536.25
2018-09-11T11:38:35.913Z,100540.52
2018-09-11T11:41:04.869Z,100542.45
2018-09-11T11:43:33.773Z,100518.92
2018-09-11T11:46:02.694Z,100524.64
2018-09-11T11:48:31.597Z,100522.69
2018-09-11T11:51:00.510Z,100522.16
2018-09-11T11:53:29.435Z,100521.63
2018-09-11T11:55:58.427Z,100516.10
2018-09-11T11:58:27.336Z,100515.45
2018-09-11T12:00:56.288Z,100516.61
2018-09-11T12:03:25.201Z,100531.72
2018-09-11T12:05:54.131Z,100539.18
2018-09-11T12:08:23.051Z,100529.83
2018-09-11T12:10:51.994Z,100529.27
2018-09-11T12:13:20.985Z,100522.84
2018-09-11T12:15:49.896Z,100516.05
2018-09-11T12:18:18.819Z,100515.00
2018-09-11T12:20:47.749Z,100507.77
2018-09-11T12:23:16.676Z,100509.62
2018-09-11T12:25:45.601Z,100504.66
2018-09-11T12:28:14.608Z,100508.40
2018-09-11T12:30:43.533Z,100511.51
2018-09-11T12:33:12.450Z,100504.53
2018-09-11T12:35:41.369Z,100508.26
2018-09-11T12:38:10.329Z,100509.91
2018-09-11T12:40:39.274Z,100499.72
2018-09-11T12:43:08.205Z,100521.94
2018-09-11T12:45:37.475Z,100505.68
2018-09-11T12:48:06.754Z,100499.23
2018-09-11T12:50:35.338Z,100505.03
2018-09-11T12:53:04.271Z,100499.87
2018-09-11T12:55:33.207Z,100505.05
2018-09-11T12:58:02.140Z,100511.45
2018-09-11T13:00:31.062Z,100499.62
2018-09-11T13:03:00.173Z,100511.73
2018-09-11T13:05:29.105Z,100512.70
2018-09-11T13:07:58.020Z,100512.95
2018-09-11T13:10:26.945Z,100518.59
2018-09-11T13:12:55.864Z,100511.14
2018-09-11T13:15:24.790Z,100516.98
2018-09-11T13:17:53.713Z,100508.98
2018-09-11T13:20:22.703Z,100509.02
2018-09-11T13:22:51.641Z,100507.22
2018-09-11T13:25:20.629Z,100504.68
2018-09-11T13:27:49.519Z,100506.05
2018-09-11T13:30:18.513Z,100505.74
2018-09-11T13:32:47.422Z,100500.58
2018-09-11T13:35:16.391Z,100505.39
2018-09-11T13:37:45.348Z,100505.55
2018-09-11T13:40:14.267Z,100503.25
2018-09-11T13:42:43.241Z,100502.26
2018-09-11T13:45:12.163Z,100499.95
2018-09-11T13:47:41.119Z,100496.89
2018-09-11T13:50:10.024Z,100503.22
2018-09-11T13:52:39.107Z,100499.23
2018-09-11T13:55:08.025Z,100500.91
2018-09-11T13:57:36.966Z,100494.82
2018-09-11T14:00:05.995Z,100500.42
2018-09-11T14:02:34.971Z,100496.73
2018-09-11T14:05:03.832Z,100498.88
2018-09-11T14:07:32.812Z,100502.56
2018-09-11T14:10:01.738Z,100505.78
2018-09-11T14:12:31.467Z,100499.00
2018-09-11T14:15:00.477Z,100502.21
2018-09-11T14:17:29.426Z,100502.98
2018-09-11T14:19:58.345Z,100505.16
2018-09-11T14:22:27.335Z,100506.27
2018-09-11T14:24:56.325Z,100501.82
2018-09-11T14:27:25.286Z,100509.59
2018-09-11T14:29:54.205Z,100502.88
2018-09-11T14:32:23.170Z,100499.36
2018-09-11T14:34:52.066Z,100513.53
2018-09-11T14:37:20.984Z,100513.59
2018-09-11T14:39:49.889Z,100504.92
2018-09-11T14:42:18.792Z,100505.77
2018-09-11T14:44:47.713Z,100499.16
2018-09-11T14:47:16.628Z,100490.91
2018-09-11T14:49:45.561Z,100485.70
2018-09-11T14:52:14.487Z,100483.17
2018-09-11T14:54:43.517Z,100485.16
2018-09-11T14:57:12.478Z,100472.84
2018-09-11T14:59:41.388Z,100476.59
2018-09-11T15:02:10.355Z,100472.44
2018-09-11T15:04:39.302Z,100465.55
2018-09-11T15:07:08.294Z,100464.34
2018-09-11T15:09:37.239Z,100462.57
2018-09-11T15:12:06.209Z,100461.47
2018-09-11T15:14:35.232Z,100463.26
2018-09-11T15:17:04.166Z,100460.73
2018-09-11T15:19:33.177Z,100458.69
2018-09-11T15:22:02.122Z,100460.25
2018-09-11T15:24:31.098Z,100462.20
2018-09-11T15:27:00.025Z,100464.44
2018-09-11T15:29:29.018Z,100481.80
2018-09-11T15:31:58.067Z,100474.21
2018-09-11T15:34:27.033Z,100468.11
2018-09-11T15:36:55.956Z,100469.55
2018-09-11T15:39:24.921Z,100463.66
2018-09-11T15:41:53.865Z,100458.52
2018-09-11T15:44:22.833Z,100456.06
2018-09-11T15:46:51.776Z,100457.73
2018-09-11T15:49:20.774Z,100467.62
2018-09-11T15:51:49.765Z,100472.16
2018-09-11T15:54:18.738Z,100464.68
2018-09-11T15:56:48.181Z,100467.80
2018-09-11T15:59:17.237Z,100465.44
2018-09-11T16:01:46.304Z,100462.66
2018-09-11T16:04:15.362Z,100461.70
2018-09-11T16:06:44.343Z,100457.53
2018-09-11T16:09:13.596Z,100457.76
2018-09-11T16:11:42.632Z,100456.17
2018-09-11T16:14:11.890Z,100458.55
2018-09-11T16:16:40.843Z,100447.72
2018-09-11T16:19:09.806Z,100448.88
2018-09-11T16:21:38.778Z,100441.20
2018-09-11T16:24:07.877Z,100445.30
2018-09-11T16:26:36.923Z,100443.23
2018-09-11T16:29:05.995Z,100450.20
2018-09-11T16:31:34.942Z,100450.33
2018-09-11T16:34:03.986Z,100454.48
2018-09-11T16:36:32.900Z,100452.30
2018-09-11T16:39:01.866Z,100448.72
2018-09-11T16:41:30.818Z,100438.91
2018-09-11T16:43:59.856Z,100435.00
2018-09-11T16:46:28.806Z,100436.26
2018-09-11T16:48:57.839Z,100439.18
2018-09-11T16:51:26.853Z,100437.88
2018-09-11T16:53:55.849Z,100437.78
2018-09-11T16:56:24.853Z,100438.70
2018-09-11T16:58:53.878Z,100437.03
2018-09-11T17:01:22.837Z,100438.20
2018-09-11T17:03:51.792Z,100445.73
2018-09-11T17:06:20.718Z,100448.34
2018-09-11T17:08:49.635Z,100447.03
2018-09-11T17:11:18.577Z,100448.73
2018-09-11T17:13:47.568Z,100439.16
2018-09-11T17:16:16.513Z,100446.41
2018-09-11T17:18:45.714Z,100446.67
2018-09-11T17:21:14.785Z,100450.56
2018-09-11T17:23:43.733Z,100454.91
2018-09-11T17:26:12.714Z,100463.50
2018-09-11T17:28:41.685Z,100467.59
2018-09-11T17:31:10.637Z,100469.27
2018-09-11T17:33:39.589Z,100467.11
2018-09-11T17:36:09.656Z,100471.53
2018-09-11T17:38:38.706Z,100468.69
2018-09-11T17:41:07.701Z,100473.28
2018-09-11T17:43:36.676Z,100476.90
2018-09-11T17:46:05.635Z,100476.00
2018-09-11T17:48:34.585Z,100487.01
2018-09-11T17:51:03.617Z,100480.53
2018-09-11T17:53:32.610Z,100483.34
2018-09-11T17:56:01.544Z,100481.43
2018-09-11T17:58:30.575Z,100480.13
2018-09-11T18:00:59.667Z,100487.84
2018-09-11T18:03:28.639Z,100485.78
2018-09-11T18:05:57.863Z,100485.65
2018-09-11T18:08:26.786Z,100487.79
2018-09-11T18:10:55.742Z,100487.64
2018-09-11T18:13:24.679Z,100496.88
2018-09-11T18:15:53.609Z,100497.13
2018-09-11T18:18:22.615Z,100497.38
2018-09-11T18:20:51.633Z,100503.30
2018-09-11T18:23:20.547Z,100511.94
2018-09-11T18:25:49.543Z,100508.67
2018-09-11T18:28:18.493Z,100510.73
2018-09-11T18:30:47.428Z,100501.09
2018-09-11T18:33:16.357Z,100506.00
2018-09-11T18:35:45.288Z,100514.05
2018-09-11T18:38:14.226Z,100507.34
2018-09-11T18:40:43.153Z,100513.70
2018-09-11T18:43:12.174Z,100520.29
2018-09-11T18:45:41.132Z,100525.97
2018-09-11T18:48:10.120Z,100534.95
2018-09-11T18:50:39.096Z,100529.61
2018-09-11T18:53:08.029Z,100532.54
2018-09-11T18:55:36.942Z,100535.16
2018-09-11T18:58:06.229Z,100536.28
2018-09-11T19:00:35.433Z,100538.09
2018-09-11T19:03:04.418Z,100540.70
2018-09-11T19:05:33.363Z,100542.72
2018-09-11T19:08:02.392Z,100548.75
2018-09-11T19:10:31.468Z,100554.73
2018-09-11T19:13:00.416Z,100549.13
2018-09-11T19:15:29.339Z,100553.31
2018-09-11T19:17:58.293Z,100551.45
2018-09-11T19:20:27.342Z,100553.81
2018-09-11T19:22:56.213Z,100553.52
2018-09-11T19:25:25.247Z,100556.18
2018-09-11T19:27:54.223Z,100553.45
2018-09-11T19:30:23.246Z,100553.98
2018-09-11T19:32:52.174Z,100559.99
2018-09-11T19:35:21.224Z,100563.36
2018-09-11T19:37:50.221Z,100568.02
2018-09-11T19:40:19.193Z,100570.42
2018-09-11T19:42:48.288Z,100573.72
2018-09-11T19:45:17.289Z,100575.91
2018-09-11T19:47:46.234Z,100575.11
2018-09-11T19:50:15.368Z,100570.11
2018-09-11T19:52:44.306Z,100570.86
2018-09-11T19:55:13.319Z,100567.83
2018-09-11T19:57:42.326Z,100566.22
2018-09-11T20:00:11.306Z,100568.81
2018-09-11T20:02:40.325Z,100569.29
2018-09-11T20:05:09.294Z,100564.69
2018-09-11T20:07:38.237Z,100571.89
2018-09-11T20:10:07.291Z,100573.26
2018-09-11T20:12:36.228Z,100578.31
2018-09-11T20:15:05.884Z,100575.16
2018-09-11T20:17:34.830Z,100578.88
2018-09-11T20:20:03.774Z,100580.88
2018-09-11T20:22:32.775Z,100582.58
2018-09-11T20:25:01.813Z,100583.59
2018-09-11T20:27:31.067Z,100586.19
2018-09-11T20:30:00.013Z,100595.25
2018-09-11T20:32:28.964Z,100593.14
2018-09-11T20:34:57.932Z,100597.84
2018-09-11T20:37:27.002Z,100599.81
2018-09-11T20:39:56.154Z,100602.16
2018-09-11T20:42:25.183Z,100597.51
2018-09-11T20:44:54.213Z,100596.39
2018-09-11T20:47:23.103Z,100599.28
2018-09-11T20:49:52.142Z,100600.16
2018-09-11T20:52:21.237Z,100602.19
2018-09-11T20:54:50.161Z,100608.09
2018-09-11T20:57:19.107Z,100611.03
2018-09-11T20:59:48.025Z,100612.65
2018-09-11T21:02:16.965Z,100616.16
2018-09-11T21:04:45.903Z,100610.05
2018-09-11T21:07:14.902Z,100610.16
2018-09-11T21:09:43.818Z,100612.65
2018-09-11T21:12:12.726Z,100608.57
2018-09-11T21:14:41.647Z,100610.59
2018-09-11T21:17:10.860Z,100619.16
2018-09-11T21:19:39.935Z,100612.11
2018-09-11T21:22:08.872Z,100610.91
2018-09-11T21:24:37.815Z,100620.52
2018-09-11T21:27:06.739Z,100616.21
2018-09-11T21:29:35.686Z,100614.14
2018-09-11T21:32:04.599Z,100613.22
2018-09-11T21:34:33.507Z,100616.56
2018-09-11T21:37:02.404Z,100611.13
2018-09-11T21:39:31.324Z,100616.31
2018-09-11T21:42:00.240Z,100618.20
2018-09-11T21:44:29.145Z,100616.22
2018-09-11T21:46:58.046Z,100616.11
2018-09-11T21:49:26.952Z,100617.95
2018-09-11T21:51:55.943Z,100620.58
2018-09-11T21:54:24.811Z,100619.22
2018-09-11T21:56:53.734Z,100620.52
2018-09-11T21:59:22.676Z,100620.63
2018-09-11T22:01:51.634Z,100621.62
2018-09-11T22:04:21.284Z,100618.41
2018-09-11T22:06:50.445Z,100616.42
2018-09-11T22:09:19.359Z,100614.95
2018-09-11T22:11:48.346Z,100619.68
2018-09-11T22:14:17.245Z,100626.80
2018-09-11T22:16:46.202Z,100621.88
2018-09-11T22:19:15.256Z,100618.45
2018-09-11T22:21:44.134Z,100624.95
2018-09-11T22:24:13.039Z,100623.91
2018-09-11T22:26:42.000Z,100621.41
2018-09-11T22:29:10.945Z,100616.91
2018-09-11T22:31:39.923Z,100618.55
2018-09-11T22:34:08.828Z,100615.84
2018-09-11T22:36:37.788Z,100613.16
2018-09-11T22:39:07.717Z,100616.16
2018-09-11T22:41:36.905Z,100613.31
2018-09-11T22:44:05.869Z,100606.67
2018-09-11T22:46:34.901Z,100612.55
2018-09-11T22:49:03.825Z,100607.70
2018-09-11T22:51:32.805Z,100605.80
2018-09-11T22:54:01.733Z,100595.81
2018-09-11T22:56:30.656Z,100599.37
2018-09-11T22:58:59.637Z,100593.64
2018-09-11T23:01:28.633Z,100591.14
2018-09-11T23:03:57.528Z,100594.35
2018-09-11T23:06:26.432Z,100584.12
2018-09-11T23:08:55.352Z,100587.14
2018-09-11T23:11:24.277Z,100585.39
2018-09-11T23:13:53.284Z,100592.66
2018-09-11T23:16:22.210Z,100580.55
2018-09-11T23:18:51.137Z,100582.87
2018-09-11T23:21:20.612Z,100574.99
2018-09-11T23:23:49.541Z,100584.31
2018-09-11T23:26:18.439Z,100584.42
2018-09-11T23:28:47.362Z,100580.09
2018-09-11T23:31:16.801Z,100575.09
2018-09-11T23:33:45.751Z,100575.91
2018-09-11T23:36:14.664Z,100586.37
2018-09-11T23:38:43.578Z,100581.22
2018-09-11T23:41:12.502Z,100579.05
2018-09-11T23:43:41.428Z,100575.36
2018-09-11T23:46:10.325Z,100568.89
2018-09-11T23:48:39.244Z,100569.55
2018-09-11T23:51:09.422Z,100572.50
2018-09-11T23:53:38.513Z,100571.85
2018-09-11T23:56:07.453Z,100571.20
2018-09-11T23:58:36.392Z,100572.75
